createdAt,value
2022-12-23T00:01:34.158Z,7.73
2022-12-23T00:04:00.986Z,7.69
2022-12-23T00:06:29.137Z,7.74
2022-12-23T00:08:58.360Z,7.72
2022-12-23T00:11:26.121Z,7.67
2022-12-23T00:14:16.545Z,7.69
2022-12-23T00:16:48.518Z,7.72
2022-12-23T00:19:15.457Z,7.71
2022-12-23T00:21:43.491Z,7.68
2022-12-23T00:24:12.057Z,7.66
2022-12-23T00:26:39.725Z,7.63
2022-12-23T00:29:06.371Z,7.62
2022-12-23T00:31:33.085Z,7.68
2022-12-23T00:33:59.837Z,7.62
2022-12-23T00:36:28.402Z,7.64
2022-12-23T00:39:15.672Z,7.67
2022-12-23T00:42:14.435Z,7.65
2022-12-23T00:44:41.060Z,7.65
2022-12-23T00:47:27.694Z,7.68
2022-12-23T00:49:54.363Z,7.72
2022-12-23T00:52:21.051Z,7.70
2022-12-23T00:54:49.044Z,7.69
2022-12-23T00:57:15.684Z,7.71
2022-12-23T00:59:42.409Z,7.67
2022-12-23T01:02:29.891Z,7.70
2022-12-23T01:05:15.173Z,7.63
2022-12-23T01:07:42.560Z,7.58
2022-12-23T01:10:11.227Z,7.58
2022-12-23T01:12:37.856Z,7.54
2022-12-23T01:15:05.337Z,7.48
2022-12-23T01:17:31.818Z,7.51
2022-12-23T01:19:58.484Z,7.52
2022-12-23T01:22:25.267Z,7.52
2022-12-23T01:24:51.961Z,7.54
2022-12-23T01:27:19.990Z,7.54
2022-12-23T01:29:46.616Z,7.58
2022-12-23T01:32:14.149Z,7.59
2022-12-23T01:34:40.919Z,7.59
2022-12-23T01:37:07.730Z,7.66
2022-12-23T01:39:34.409Z,7.61
2022-12-23T01:42:21.221Z,7.68
2022-12-23T01:44:55.609Z,7.65
2022-12-23T01:47:35.622Z,7.72
2022-12-23T01:50:08.334Z,7.71
2022-12-23T01:52:41.006Z,7.70
2022-12-23T01:55:08.536Z,7.70
2022-12-23T01:57:38.820Z,7.68
2022-12-23T02:00:27.047Z,7.68
2022-12-23T02:03:12.578Z,7.67
2022-12-23T02:05:40.379Z,7.77
2022-12-23T02:08:26.058Z,7.73
2022-12-23T02:11:07.077Z,7.78
2022-12-23T02:14:03.757Z,7.74
2022-12-23T02:16:40.382Z,7.73
2022-12-23T02:19:14.907Z,7.79
2022-12-23T02:22:18.561Z,7.79
2022-12-23T02:25:26.410Z,7.77
2022-12-23T02:28:10.635Z,7.77
2022-12-23T02:30:43.310Z,7.75
2022-12-23T02:33:32.385Z,7.74
2022-12-23T02:36:10.158Z,7.75
2022-12-23T02:38:44.676Z,7.72
2022-12-23T02:41:20.062Z,7.72
2022-12-23T02:43:51.212Z,7.73
2022-12-23T02:46:25.360Z,7.75
2022-12-23T02:48:56.736Z,7.74
2022-12-23T02:51:30.098Z,7.74
2022-12-23T02:54:00.535Z,7.79
2022-12-23T02:56:30.826Z,7.72
2022-12-23T02:59:02.622Z,7.73
2022-12-23T03:01:33.588Z,7.69
2022-12-23T03:04:00.558Z,7.67
2022-12-23T03:06:31.882Z,7.63
2022-12-23T03:09:00.570Z,7.63
2022-12-23T03:11:40.262Z,7.59
2022-12-23T03:14:34.416Z,7.61
2022-12-23T03:17:17.721Z,7.64
2022-12-23T03:19:53.081Z,7.61
2022-12-23T03:22:25.981Z,7.55
2022-12-23T03:25:02.075Z,7.54
2022-12-23T03:27:34.502Z,7.56
2022-12-23T03:30:05.450Z,7.53
2022-12-23T03:32:36.782Z,7.63
2022-12-23T03:35:08.302Z,7.60
2022-12-23T03:37:40.415Z,7.62
2022-12-23T03:40:11.975Z,7.64
2022-12-23T03:42:42.182Z,7.69
2022-12-23T03:48:08.919Z,7.72
2022-12-23T03:50:38.670Z,7.78
2022-12-23T03:53:11.000Z,7.81
2022-12-23T03:55:44.030Z,7.76
2022-12-23T03:58:17.679Z,7.72
2022-12-23T04:00:50.547Z,7.69
2022-12-23T04:03:23.256Z,7.70
2022-12-23T04:05:54.092Z,7.74
2022-12-23T04:08:25.343Z,7.76
2022-12-23T04:10:53.061Z,7.79
2022-12-23T04:13:19.843Z,7.78
2022-12-23T04:15:46.886Z,7.81
2022-12-23T04:18:13.636Z,7.85
2022-12-23T04:20:41.737Z,7.84
2022-12-23T04:23:08.435Z,7.82
2022-12-23T04:25:35.156Z,7.79
2022-12-23T04:28:01.741Z,7.86
2022-12-23T04:30:33.919Z,7.86
2022-12-23T04:33:01.964Z,7.83
2022-12-23T04:35:29.036Z,7.91
2022-12-23T04:37:57.226Z,7.86
2022-12-23T04:40:24.003Z,7.86
2022-12-23T04:42:50.630Z,7.86
2022-12-23T04:45:17.423Z,7.81
2022-12-23T04:47:44.169Z,7.87
2022-12-23T04:50:14.846Z,7.85
2022-12-23T04:52:41.600Z,7.82
2022-12-23T04:55:10.550Z,7.85
2022-12-23T04:57:37.399Z,7.88
2022-12-23T05:00:04.870Z,7.80
2022-12-23T05:02:31.582Z,7.78
2022-12-23T05:04:58.271Z,7.80
2022-12-23T05:07:25.106Z,7.79
2022-12-23T05:09:51.827Z,7.81
2022-12-23T05:12:19.898Z,7.82
2022-12-23T05:14:47.269Z,7.88
2022-12-23T05:17:13.934Z,7.91
2022-12-23T05:19:40.533Z,8.05
2022-12-23T05:22:07.220Z,8.09
2022-12-23T05:24:33.919Z,8.03
2022-12-23T05:27:00.781Z,7.94
2022-12-23T05:29:29.024Z,8.02
2022-12-23T05:31:55.683Z,8.04
2022-12-23T05:34:22.568Z,8.01
2022-12-23T05:36:49.255Z,7.98
2022-12-23T05:39:15.892Z,8.07
2022-12-23T05:41:42.808Z,8.01
2022-12-23T05:44:09.799Z,8.03
2022-12-23T05:46:38.040Z,7.97
2022-12-23T05:49:04.853Z,7.94
2022-12-23T05:51:31.603Z,7.92
2022-12-23T05:53:58.471Z,7.90
2022-12-23T05:56:25.111Z,7.94
2022-12-23T05:58:51.849Z,7.91
2022-12-23T06:01:18.591Z,7.85
2022-12-23T06:03:49.720Z,7.79
2022-12-23T06:06:16.762Z,7.84
2022-12-23T06:08:43.357Z,7.84
2022-12-23T06:11:10.115Z,7.83
2022-12-23T06:13:36.729Z,7.83
2022-12-23T06:16:03.850Z,7.82
2022-12-23T06:18:30.548Z,7.78
2022-12-23T06:20:58.514Z,7.81
2022-12-23T06:23:25.172Z,7.77
2022-12-23T06:25:58.784Z,7.79
2022-12-23T06:28:25.589Z,7.79
2022-12-23T06:30:53.055Z,7.78
2022-12-23T06:33:20.219Z,7.78
2022-12-23T06:35:46.877Z,7.79
2022-12-23T06:38:15.011Z,7.75
2022-12-23T06:40:41.824Z,7.74
2022-12-23T06:43:10.005Z,7.75
2022-12-23T06:45:36.804Z,7.70
2022-12-23T06:48:03.773Z,7.64
2022-12-23T06:50:30.366Z,7.66
2022-12-23T06:52:56.981Z,7.69
2022-12-23T06:55:24.992Z,7.69
2022-12-23T06:57:51.719Z,7.70
2022-12-23T07:00:18.619Z,7.71
2022-12-23T07:02:45.529Z,7.73
2022-12-23T07:05:12.253Z,7.72
2022-12-23T07:07:38.839Z,7.74
2022-12-23T07:10:06.922Z,7.75
2022-12-23T07:12:37.361Z,7.77
2022-12-23T07:15:05.582Z,7.75
2022-12-23T07:17:32.477Z,7.80
2022-12-23T07:19:59.133Z,7.81
2022-12-23T07:22:25.684Z,7.79
2022-12-23T07:24:52.464Z,7.79
2022-12-23T07:27:19.080Z,7.81
2022-12-23T07:29:47.147Z,7.81
2022-12-23T07:32:13.863Z,7.83
2022-12-23T07:34:40.557Z,7.79
2022-12-23T07:37:07.477Z,7.75
2022-12-23T07:39:34.783Z,7.75
2022-12-23T07:42:33.894Z,7.74
2022-12-23T07:44:49.577Z,7.71
2022-12-23T07:47:17.018Z,7.74
2022-12-23T07:49:43.740Z,7.92
2022-12-23T07:52:10.393Z,7.91
2022-12-23T07:54:37.078Z,7.87
2022-12-23T07:57:03.918Z,7.86
2022-12-23T07:59:30.592Z,7.85
2022-12-23T08:01:58.833Z,7.85
2022-12-23T08:04:25.739Z,7.92
2022-12-23T08:06:52.436Z,7.88
2022-12-23T08:09:19.182Z,7.93
2022-12-23T08:11:45.913Z,7.95
2022-12-23T08:14:12.555Z,7.93
2022-12-23T08:16:43.630Z,7.89
2022-12-23T08:19:12.398Z,7.88
2022-12-23T08:21:38.978Z,7.86
2022-12-23T08:24:06.208Z,7.83
2022-12-23T08:26:33.247Z,7.87
2022-12-23T08:29:00.561Z,7.91
2022-12-23T08:31:28.983Z,7.89
2022-12-23T08:33:56.879Z,7.91
2022-12-23T08:36:27.260Z,7.90
2022-12-23T08:38:56.006Z,7.89
2022-12-23T08:41:25.317Z,7.88
2022-12-23T08:43:52.463Z,7.94
2022-12-23T08:46:19.634Z,7.99
2022-12-23T08:48:49.463Z,8.04
2022-12-23T08:51:18.921Z,8.03
2022-12-23T08:53:48.006Z,8.05
2022-12-23T08:56:17.085Z,8.05
2022-12-23T08:58:45.634Z,8.08
2022-12-23T09:01:14.987Z,8.08
2022-12-23T09:03:42.041Z,8.11
2022-12-23T09:06:11.028Z,8.17
2022-12-23T09:08:39.709Z,8.16
2022-12-23T09:11:10.479Z,8.15
2022-12-23T09:13:37.343Z,8.20
2022-12-23T09:16:04.593Z,8.16
2022-12-23T09:18:31.556Z,8.15
2022-12-23T09:20:59.192Z,8.73
2022-12-23T09:23:25.984Z,8.54
2022-12-23T09:25:52.901Z,8.34
2022-12-23T09:28:21.275Z,8.27
2022-12-23T09:30:48.013Z,8.21
2022-12-23T09:33:14.716Z,8.20
2022-12-23T09:35:41.474Z,8.23
2022-12-23T09:38:11.108Z,8.18
2022-12-23T09:40:39.650Z,8.17
2022-12-23T09:43:17.665Z,8.21
2022-12-23T09:46:04.957Z,8.16
2022-12-23T09:48:35.544Z,8.13
2022-12-23T09:51:03.941Z,8.18
2022-12-23T09:53:43.047Z,8.19
2022-12-23T09:56:18.840Z,8.22
2022-12-23T09:58:52.775Z,8.22
2022-12-23T10:01:24.730Z,8.23
2022-12-23T10:04:16.558Z,8.23
2022-12-23T10:06:56.320Z,8.23
2022-12-23T10:09:27.676Z,8.24
2022-12-23T10:11:54.891Z,8.23
2022-12-23T10:14:25.345Z,8.24
2022-12-23T10:16:58.088Z,8.21
2022-12-23T10:19:28.789Z,8.25
2022-12-23T10:22:02.143Z,8.27
2022-12-23T10:24:34.653Z,8.28
2022-12-23T10:27:06.019Z,8.54
2022-12-23T10:29:34.054Z,8.75
2022-12-23T10:32:15.214Z,8.59
2022-12-23T10:34:51.487Z,8.50
2022-12-23T10:37:30.585Z,8.46
2022-12-23T10:40:10.176Z,8.45
2022-12-23T10:42:41.909Z,8.40
2022-12-23T10:45:24.635Z,8.37
2022-12-23T10:48:11.986Z,8.37
2022-12-23T10:50:53.650Z,8.41
2022-12-23T10:53:42.283Z,8.44
2022-12-23T10:56:09.297Z,8.44
2022-12-23T10:58:38.306Z,8.44
2022-12-23T11:01:14.159Z,8.46
2022-12-23T11:03:49.812Z,8.47
2022-12-23T11:06:16.690Z,8.47
2022-12-23T11:08:43.777Z,8.47
2022-12-23T11:11:10.621Z,8.41
2022-12-23T11:13:40.537Z,8.43
2022-12-23T11:16:21.947Z,8.41
2022-12-23T11:19:05.594Z,8.39
2022-12-23T11:21:34.135Z,8.33
2022-12-23T11:24:15.363Z,8.32
2022-12-23T11:26:42.997Z,8.31
2022-12-23T11:29:13.081Z,8.31
2022-12-23T11:31:43.138Z,8.31
2022-12-23T11:34:17.339Z,8.40
2022-12-23T11:36:54.696Z,8.37
2022-12-23T11:39:27.033Z,8.38
2022-12-23T11:41:55.999Z,8.31
2022-12-23T11:44:26.071Z,8.32
2022-12-23T11:46:53.116Z,8.25
2022-12-23T11:49:23.400Z,8.22
2022-12-23T11:52:01.877Z,8.26
2022-12-23T11:54:29.251Z,8.21
2022-12-23T11:56:56.485Z,8.24
2022-12-23T11:59:35.822Z,8.21
2022-12-23T12:02:05.911Z,8.23
2022-12-23T12:04:36.163Z,8.26
2022-12-23T12:07:06.035Z,8.25
2022-12-23T12:09:34.013Z,8.27
2022-12-23T12:12:05.591Z,8.22
2022-12-23T12:14:42.725Z,8.15
2022-12-23T12:17:17.660Z,8.09
2022-12-23T12:19:56.214Z,8.08
2022-12-23T12:22:32.092Z,8.06
2022-12-23T12:25:06.488Z,8.05
2022-12-23T12:27:37.551Z,8.05
2022-12-23T12:30:11.902Z,8.04
2022-12-23T12:32:47.514Z,8.06
2022-12-23T12:35:21.622Z,8.07
2022-12-23T12:37:51.444Z,8.05
2022-12-23T12:40:26.218Z,8.03
2022-12-23T12:42:59.950Z,8.02
2022-12-23T12:45:36.343Z,8.00
2022-12-23T12:48:22.799Z,8.03
2022-12-23T12:50:59.195Z,8.03
2022-12-23T12:53:28.217Z,8.04
2022-12-23T12:56:00.445Z,8.08
2022-12-23T12:58:27.266Z,8.05
2022-12-23T13:01:03.623Z,8.08
2022-12-23T13:03:54.710Z,8.11
2022-12-23T13:06:30.596Z,8.12
2022-12-23T13:09:05.899Z,8.08
2022-12-23T13:11:44.960Z,8.08
2022-12-23T13:14:26.869Z,8.12
2022-12-23T13:17:03.628Z,8.13
2022-12-23T13:19:38.412Z,8.14
2022-12-23T13:22:10.124Z,8.09
2022-12-23T13:24:51.009Z,8.09
2022-12-23T13:27:21.729Z,8.11
2022-12-23T13:30:02.675Z,8.10
2022-12-23T13:32:39.666Z,8.16
2022-12-23T13:35:22.730Z,8.21
2022-12-23T13:37:56.082Z,8.24
2022-12-23T13:40:33.328Z,8.23
2022-12-23T13:43:06.113Z,8.25
2022-12-23T13:45:38.635Z,8.27
2022-12-23T13:48:24.409Z,8.31
2022-12-23T13:50:59.341Z,8.35
2022-12-23T13:53:39.218Z,8.35
2022-12-23T13:56:14.014Z,8.35
2022-12-23T13:58:41.239Z,8.38
2022-12-23T14:01:31.598Z,8.33
2022-12-23T14:04:31.757Z,8.31
2022-12-23T14:07:00.434Z,8.25
2022-12-23T14:09:35.338Z,8.26
2022-12-23T14:12:13.349Z,8.31
2022-12-23T14:14:48.235Z,8.31
2022-12-23T14:17:22.685Z,8.27
2022-12-23T14:20:05.394Z,8.33
2022-12-23T14:22:45.211Z,8.39
2022-12-23T14:25:33.332Z,8.49
2022-12-23T14:28:06.741Z,8.51
2022-12-23T14:30:38.744Z,8.50
2022-12-23T14:33:16.117Z,8.52
2022-12-23T14:35:53.044Z,8.51
2022-12-23T14:38:28.661Z,8.56
2022-12-23T14:41:34.357Z,8.56
2022-12-23T14:44:02.770Z,8.57
2022-12-23T14:46:57.126Z,8.61
2022-12-23T14:49:43.219Z,8.65
2022-12-23T14:52:45.414Z,8.72
2022-12-23T14:55:40.026Z,8.74
2022-12-23T14:58:29.066Z,8.84
2022-12-23T15:01:02.485Z,8.88
2022-12-23T15:03:34.356Z,9.02
2022-12-23T15:06:06.290Z,9.27
2022-12-23T15:08:37.809Z,9.38
2022-12-23T15:11:07.931Z,9.46
2022-12-23T15:13:37.185Z,9.71
2022-12-23T15:16:03.987Z,9.80
2022-12-23T15:18:30.768Z,9.92
2022-12-23T15:21:03.293Z,10.00
2022-12-23T15:23:30.507Z,10.08
2022-12-23T15:26:00.325Z,10.12
2022-12-23T15:28:37.457Z,10.18
2022-12-23T15:31:06.149Z,10.11
2022-12-23T15:36:27.721Z,10.07
2022-12-23T15:38:54.506Z,10.10
2022-12-23T15:41:22.612Z,10.08
2022-12-23T15:43:51.147Z,10.07
2022-12-23T15:46:26.956Z,10.06
2022-12-23T15:48:56.648Z,10.12
2022-12-23T15:51:57.783Z,10.09
2022-12-23T15:54:22.709Z,10.13
2022-12-23T15:56:52.635Z,10.14
2022-12-23T15:59:25.022Z,10.19
2022-12-23T16:01:52.636Z,10.23
2022-12-23T16:04:24.185Z,10.26
2022-12-23T16:06:52.172Z,10.33
2022-12-23T16:09:35.310Z,10.29
2022-12-23T16:12:04.240Z,10.39
2022-12-23T16:14:38.310Z,10.43
2022-12-23T16:17:15.505Z,10.35
2022-12-23T16:19:45.194Z,10.41
2022-12-23T16:22:18.103Z,10.45
2022-12-23T16:24:47.752Z,10.51
2022-12-23T16:27:16.845Z,10.51
2022-12-23T16:29:47.194Z,10.49
2022-12-23T16:32:17.581Z,10.47
2022-12-23T16:34:49.381Z,10.42
2022-12-23T16:37:16.403Z,10.38
2022-12-23T16:39:43.243Z,10.40
2022-12-23T16:42:09.983Z,10.38
2022-12-23T16:44:36.688Z,10.40
2022-12-23T16:47:08.568Z,10.45
2022-12-23T16:49:37.594Z,10.40
2022-12-23T16:52:07.266Z,10.41
2022-12-23T16:54:33.952Z,10.41
2022-12-23T16:57:02.089Z,10.42
2022-12-23T16:59:28.797Z,10.45
2022-12-23T17:02:02.891Z,10.50
2022-12-23T17:04:31.664Z,10.55
2022-12-23T17:06:58.286Z,10.45
2022-12-23T17:09:25.010Z,10.45
2022-12-23T17:11:53.618Z,10.47
2022-12-23T17:14:22.167Z,10.51
2022-12-23T17:16:50.060Z,10.56
2022-12-23T17:19:23.404Z,10.60
2022-12-23T17:22:00.148Z,10.59
2022-12-23T17:24:27.846Z,10.54
2022-12-23T17:26:56.922Z,10.45
2022-12-23T17:29:23.831Z,-147.88
2022-12-23T17:31:51.162Z,-147.88
2022-12-23T17:34:20.026Z,-147.88
2022-12-23T17:36:50.455Z,-147.88
2022-12-23T17:39:19.686Z,-147.88
2022-12-23T17:41:46.728Z,-147.88
2022-12-23T17:44:15.390Z,-147.88
2022-12-23T17:46:42.637Z,10.67
2022-12-23T17:49:09.414Z,10.77
2022-12-23T17:51:36.375Z,10.70
2022-12-23T17:54:04.533Z,10.67
2022-12-23T17:56:32.663Z,10.76
2022-12-23T17:58:59.366Z,10.70
2022-12-23T18:01:27.393Z,10.67
2022-12-23T18:03:54.905Z,10.66
2022-12-23T18:06:23.560Z,10.65
2022-12-23T18:08:50.766Z,10.60
2022-12-23T18:11:22.764Z,10.54
2022-12-23T18:13:52.697Z,10.50
2022-12-23T18:16:19.771Z,10.47
2022-12-23T18:18:47.352Z,10.48
2022-12-23T18:21:20.391Z,10.46
2022-12-23T18:23:47.300Z,10.39
2022-12-23T18:26:15.232Z,10.32
2022-12-23T18:28:42.251Z,10.29
2022-12-23T18:31:14.754Z,10.21
2022-12-23T18:33:41.491Z,10.25
2022-12-23T18:36:18.382Z,10.28
2022-12-23T18:38:45.142Z,10.25
2022-12-23T18:41:12.483Z,10.19
2022-12-23T18:43:39.260Z,10.13
2022-12-23T18:46:06.243Z,10.13
2022-12-23T18:48:34.262Z,10.07
2022-12-23T18:51:01.046Z,10.08
2022-12-23T18:53:27.804Z,10.09
2022-12-23T18:55:55.012Z,10.00
2022-12-23T18:58:21.868Z,10.01
2022-12-23T19:00:50.448Z,9.96
2022-12-23T19:03:23.011Z,9.99
2022-12-23T19:05:52.070Z,9.96
2022-12-23T19:08:25.496Z,9.96
2022-12-23T19:10:53.653Z,9.85
2022-12-23T19:13:20.340Z,9.74
2022-12-23T19:15:47.047Z,9.84
2022-12-23T19:18:15.097Z,9.83
2022-12-23T19:20:42.430Z,9.83
2022-12-23T19:23:11.102Z,9.85
2022-12-23T19:25:50.736Z,9.79
2022-12-23T19:28:22.125Z,9.73
2022-12-23T19:30:49.378Z,9.63
2022-12-23T19:33:16.636Z,9.58
2022-12-23T19:35:44.246Z,9.53
2022-12-23T19:38:12.797Z,9.51
2022-12-23T19:40:39.586Z,9.55
2022-12-23T19:43:06.408Z,9.63
2022-12-23T19:45:33.266Z,9.61
2022-12-23T19:47:59.960Z,9.60
2022-12-23T19:50:29.154Z,9.64
2022-12-23T19:52:56.574Z,9.59
2022-12-23T19:55:24.731Z,9.54
2022-12-23T19:57:52.222Z,9.56
2022-12-23T20:00:19.209Z,9.65
2022-12-23T20:02:45.967Z,9.60
2022-12-23T20:05:12.941Z,9.51
2022-12-23T20:07:39.594Z,9.37
2022-12-23T20:10:07.789Z,9.35
2022-12-23T20:12:35.988Z,9.26
2022-12-23T20:15:02.787Z,9.31
2022-12-23T20:17:29.442Z,9.27
2022-12-23T20:19:56.202Z,9.20
2022-12-23T20:22:22.989Z,9.17
2022-12-23T20:24:49.936Z,9.22
2022-12-23T20:27:19.155Z,9.22
2022-12-23T20:29:50.847Z,9.22
2022-12-23T20:32:17.719Z,9.30
2022-12-23T20:34:44.542Z,9.29
2022-12-23T20:37:11.835Z,9.44
2022-12-23T20:39:38.494Z,9.36
2022-12-23T20:42:05.299Z,9.36
2022-12-23T20:44:35.708Z,9.44
2022-12-23T20:47:05.720Z,9.44
2022-12-23T20:49:33.226Z,9.44
2022-12-23T20:52:00.002Z,9.47
2022-12-23T20:54:32.538Z,9.47
2022-12-23T20:57:01.182Z,9.47
2022-12-23T20:59:28.083Z,9.43
2022-12-23T21:01:55.060Z,9.47
2022-12-23T21:04:23.745Z,9.45
2022-12-23T21:06:50.509Z,9.46
2022-12-23T21:09:17.460Z,9.44
2022-12-23T21:11:46.613Z,9.44
2022-12-23T21:14:14.890Z,9.50
2022-12-23T21:16:42.790Z,9.45
2022-12-23T21:19:15.373Z,9.40
2022-12-23T21:21:43.859Z,9.38
2022-12-23T21:24:11.401Z,9.41
2022-12-23T21:26:38.330Z,9.40
2022-12-23T21:29:07.124Z,9.33
2022-12-23T21:31:36.260Z,9.29
2022-12-23T21:34:03.367Z,9.18
2022-12-23T21:36:32.577Z,9.12
2022-12-23T21:39:01.033Z,9.14
2022-12-23T21:41:29.541Z,9.10
2022-12-23T21:43:56.557Z,9.08
2022-12-23T21:46:24.355Z,9.00
2022-12-23T21:48:51.339Z,-147.88
2022-12-23T21:51:20.389Z,-147.88
2022-12-23T21:53:49.375Z,-147.88
2022-12-23T21:56:19.454Z,-147.88
2022-12-23T21:58:47.108Z,9.00
2022-12-23T22:01:16.569Z,8.95
2022-12-23T22:03:45.128Z,8.93
2022-12-23T22:06:14.659Z,8.97
2022-12-23T22:08:41.929Z,8.86
2022-12-23T22:11:10.561Z,8.85
2022-12-23T22:13:39.221Z,8.79
2022-12-23T22:16:09.513Z,8.87
2022-12-23T22:18:36.652Z,8.78
2022-12-23T22:21:04.874Z,8.71
2022-12-23T22:23:31.667Z,8.79
2022-12-23T22:25:58.443Z,8.80
2022-12-23T22:28:25.381Z,8.79
2022-12-23T22:30:53.443Z,8.86
2022-12-23T22:33:21.175Z,8.83
2022-12-23T22:35:54.830Z,8.94
2022-12-23T22:38:21.607Z,8.91
2022-12-23T22:40:49.344Z,8.87
2022-12-23T22:43:16.194Z,8.94
2022-12-23T22:45:42.917Z,8.92
2022-12-23T22:48:11.148Z,-147.88
2022-12-23T22:50:38.790Z,-147.88
2022-12-23T22:53:05.492Z,-147.88
2022-12-23T22:55:32.151Z,-147.88
2022-12-23T22:57:58.847Z,-147.88
2022-12-23T23:00:25.786Z,-147.88
2022-12-23T23:02:52.493Z,-147.88
2022-12-23T23:05:21.189Z,-147.88
2022-12-23T23:07:47.986Z,-147.88
2022-12-23T23:10:17.463Z,-147.88
2022-12-23T23:12:44.357Z,-147.88
2022-12-23T23:15:11.521Z,-147.88
2022-12-23T23:17:38.266Z,-147.88
2022-12-23T23:20:06.241Z,-147.88
2022-12-23T23:22:34.398Z,-147.88
2022-12-23T23:25:01.124Z,-147.88
2022-12-23T23:27:27.820Z,-147.88
2022-12-23T23:29:54.546Z,-147.88
2022-12-23T23:32:21.276Z,-147.88
2022-12-23T23:34:48.066Z,-147.88
2022-12-23T23:37:15.675Z,-147.88
2022-12-23T23:39:43.685Z,-147.88
2022-12-23T23:42:10.538Z,-147.88
2022-12-23T23:44:37.141Z,-147.88
2022-12-23T23:47:04.055Z,-147.88
2022-12-23T23:49:30.901Z,-147.88
2022-12-23T23:51:57.587Z,-147.88
2022-12-23T23:54:24.474Z,-147.88
2022-12-23T23:56:52.554Z,-147.88
2022-12-23T23:59:19.267Z,-147.88
